地図

経路データ

SID SEASON NUMBER BASIN SUBBASIN NAME ISO_TIME NATURE LAT LON WMO_WIND WMO_PRES WMO_AGENCY TRACK_TYPE DIST2LAND LANDFALL IFLAG USA_AGENCY USA_ATCF_ID USA_LAT USA_LON USA_RECORD USA_STATUS USA_WIND USA_PRES USA_SSHS USA_R34_NE USA_R34_SE USA_R34_SW USA_R34_NW USA_R50_NE USA_R50_SE USA_R50_SW USA_R50_NW USA_R64_NE USA_R64_SE USA_R64_SW USA_R64_NW USA_POCI USA_ROCI USA_RMW USA_EYE TOKYO_LAT TOKYO_LON TOKYO_GRADE TOKYO_WIND TOKYO_PRES TOKYO_R50_DIR TOKYO_R50_LONG TOKYO_R50_SHORT TOKYO_R30_DIR TOKYO_R30_LONG TOKYO_R30_SHORT TOKYO_LAND CMA_LAT CMA_LON CMA_CAT CMA_WIND CMA_PRES HKO_LAT HKO_LON HKO_CAT HKO_WIND HKO_PRES NEWDELHI_LAT NEWDELHI_LON NEWDELHI_GRADE NEWDELHI_WIND NEWDELHI_PRES NEWDELHI_CI NEWDELHI_DP NEWDELHI_POCI REUNION_LAT REUNION_LON REUNION_TYPE REUNION_WIND REUNION_PRES REUNION_TNUM REUNION_CI REUNION_RMW REUNION_R34_NE REUNION_R34_SE REUNION_R34_SW REUNION_R34_NW REUNION_R50_NE REUNION_R50_SE REUNION_R50_SW REUNION_R50_NW REUNION_R64_NE REUNION_R64_SE REUNION_R64_SW REUNION_R64_NW BOM_LAT BOM_LON BOM_TYPE BOM_WIND BOM_PRES BOM_TNUM BOM_CI BOM_RMW BOM_R34_NE BOM_R34_SE BOM_R34_SW BOM_R34_NW BOM_R50_NE BOM_R50_SE BOM_R50_SW BOM_R50_NW BOM_R64_NE BOM_R64_SE BOM_R64_SW BOM_R64_NW BOM_ROCI BOM_POCI BOM_EYE BOM_POS_METHOD BOM_PRES_METHOD NADI_LAT NADI_LON NADI_CAT NADI_WIND NADI_PRES WELLINGTON_LAT WELLINGTON_LON WELLINGTON_WIND WELLINGTON_PRES DS824_LAT DS824_LON DS824_STAGE DS824_WIND DS824_PRES TD9636_LAT TD9636_LON TD9636_STAGE TD9636_WIND TD9636_PRES TD9635_LAT TD9635_LON TD9635_WIND TD9635_PRES TD9635_ROCI NEUMANN_LAT NEUMANN_LON NEUMANN_CLASS NEUMANN_WIND NEUMANN_PRES MLC_LAT MLC_LON MLC_CLASS MLC_WIND MLC_PRES USA_GUST BOM_GUST BOM_GUST_PER REUNION_GUST REUNION_GUST_PER USA_SEAHGT USA_SEARAD_NE USA_SEARAD_SE USA_SEARAD_SW USA_SEARAD_NW STORM_SPEED STORM_DIR
1991080S06092 1991 15 SI WA FATIMA 1991-03-20 18:00:00 TS -6.00000 92.1000 main 895 895 O___________O_ jtwc_sh SH171991 -6.00000 92.1000 20 -1 -6.00000 92.1000 TC 20 5 284
1991080S06092 1991 15 SI WA FATIMA 1991-03-20 21:00:00 TS -5.93752 91.8500 main 918 918 P___________P_ SH171991 -5.93752 91.8500 20 -1 -5.93752 91.8500 TC 20 5 287
1991080S06092 1991 15 SI WA FATIMA 1991-03-21 00:00:00 TS -5.85714 91.6286 main 937 931 O____O______O_ jtwc_sh SH171991 -5.90000 91.6000 20 -1 -5.60000 91.8000 2 24 1000 9.90000 2.00000 -5.90000 91.6000 TC 20 4 282
1991080S06092 1991 15 SI WA FATIMA 1991-03-21 03:00:00 TS -5.84699 91.4120 main 951 951 P____P______P_ SH171991 -5.89999 91.3500 22 -1 -5.63500 91.6600 2 24 1000 -5.89999 91.3500 TC 22 4 272
1991080S06092 1991 15 SI WA FATIMA 1991-03-21 06:00:00 TS -5.84545 91.2091 main 970 970 O____O______O_ jtwc_sh SH171991 -5.90000 91.1000 25 -1 -5.70000 91.5000 2 24 1000 9.90000 2.00000 -5.90000 91.1000 TC 25 4 272
1991080S06092 1991 15 SI WA FATIMA 1991-03-21 09:00:00 TS -5.83583 91.0025 main 989 989 P____P______P_ SH171991 -5.84999 90.8500 25 -1 -5.80750 91.3075 2 24 1000 -5.84999 90.8500 TC 25 4 272
1991080S06092 1991 15 SI WA FATIMA 1991-03-21 12:00:00 TS -5.83333 90.7667 main 1008 1008 O____O______O_ jtwc_sh SH171991 -5.80000 90.6000 25 -1 -5.90000 91.1000 2 24 1000 9.90000 2.00000 -5.80000 90.6000 TC 25 5 272
1991080S06092 1991 15 SI WA FATIMA 1991-03-21 15:00:00 TS -5.82082 90.5383 main 1036 1036 P____P______P_ SH171991 -5.77748 90.3575 25 -1 -5.90749 90.9000 2 26 998 -5.77748 90.3575 TC 25 5 270
1991080S06092 1991 15 SI WA FATIMA 1991-03-21 18:00:00 TS -5.83333 90.3000 main 1056 1056 O____O______O_ jtwc_sh SH171991 -5.80000 90.1000 25 -1 -5.90000 90.7000 2 28 997 9.90000 2.50000 -5.80000 90.1000 TC 25 5 261
1991080S06092 1991 15 SI WA FATIMA 1991-03-21 21:00:00 TS -5.90166 90.0408 main 1090 1090 P____P______P_ SH171991 -5.87751 89.8000 27 -1 -5.94996 90.5225 2 28 997 -5.87751 89.8000 TC 27 6 253
1991080S06092 1991 15 SI MM FATIMA 1991-03-22 00:00:00 TS -6.00000 89.7667 main 1115 1115 O____O______O_ jtwc_sh SH171991 -6.00000 89.5000 30 -1 -6.00000 90.3000 2 28 997 9.90000 2.50000 -6.00000 89.5000 TC 30 6 252
1991080S06092 1991 15 SI MM FATIMA 1991-03-22 03:00:00 TS -6.08249 89.4858 main 1150 1150 P____P______P_ SH171991 -6.13498 89.2425 30 -1 -5.97751 89.9724 2 28 997 -6.13498 89.2425 TC 30 6 250
1991080S06092 1991 15 SI MM FATIMA 1991-03-22 06:00:00 TS -6.20000 89.2000 main 1184 1184 O____O______O_ jtwc_sh SH171991 -6.30000 89.0000 30 -1 -6.00000 89.6000 2 28 997 9.90000 2.50000 -6.30000 89.0000 TC 30 6 242
1991080S06092 1991 15 SI MM FATIMA 1991-03-22 09:00:00 TS -6.38248 88.9192 main 1224 1224 P____P______P_ SH171991 -6.49249 88.7500 30 -1 -6.16246 89.2575 2 29 996 -6.49249 88.7500 TC 30 7 235
1991080S06092 1991 15 SI MM FATIMA 1991-03-22 12:00:00 TS -6.60000 88.6333 main 1264 1264 O____O______O_ jtwc_sh SH171991 -6.70000 88.5000 30 -1 -6.40000 88.9000 2 31 995 9.90000 2.50000 -6.70000 88.5000 TC 30 7 234
1991080S06092 1991 15 SI MM FATIMA 1991-03-22 15:00:00 TS -6.81168 88.3233 main 1304 1304 P____P______P_ SH171991 -6.90750 88.2425 32 -1 -6.62004 88.4850 2 33 993 -6.90750 88.2425 TC 32 7 234
1991080S06092 1991 15 SI MM FATIMA 1991-03-22 18:00:00 TS -7.03333 88.0333 main 1343 1343 O____O______O_ jtwc_sh SH171991 -7.10000 88.0000 35 0 -6.90000 88.1000 3 36 991 9.90000 3.00000 -7.10000 88.0000 TC 35 7 228
1991080S06092 1991 15 SI MM FATIMA 1991-03-22 21:00:00 TS -7.26913 87.8091 main 1379 1379 P____P______P_ SH171991 -7.25747 87.8000 35 0 -7.29244 87.8275 3 36 991 -7.25747 87.8000 TC 35 6 223
1991080S06092 1991 15 SI MM FATIMA 1991-03-23 00:00:00 TS -7.50000 87.6000 main 1409 1409 O____O______O_ jtwc_sh SH171991 -7.40000 87.6000 35 0 -7.70000 87.6000 3 36 991 9.90000 3.00000 -7.40000 87.6000 TC 35 6 225
1991080S06092 1991 15 SI MM FATIMA 1991-03-23 03:00:00 TS -7.71249 87.3575 main 1440 1440 P____P______P_ SH171991 -7.55000 87.3575 35 0 -8.03747 87.3575 3 36 991 -7.55000 87.3575 TC 35 6 231
1991080S06092 1991 15 SI MM FATIMA 1991-03-23 06:00:00 TS -7.90000 87.1000 main 1479 1479 O____O______O_ jtwc_sh SH171991 -7.70000 87.1000 35 0 -8.30000 87.1000 3 36 991 9.90000 3.00000 -7.70000 87.1000 TC 35 6 236
1991080S06092 1991 15 SI MM FATIMA 1991-03-23 09:00:00 TS -8.05749 86.8358 main 1519 1519 P____P______P_ SH171991 -7.84997 86.8575 37 0 -8.47252 86.7925 3 36 991 -7.84997 86.8575 TC 37 6 240
1991080S06092 1991 15 SI MM FATIMA 1991-03-23 12:00:00 TS -8.20000 86.5667 main 1544 1544 O____O______O_ jtwc_sh SH171991 -8.00000 86.6000 40 0 -8.60000 86.5000 3 36 991 9.90000 3.00000 -8.00000 86.6000 TC 40 6 241
1991080S06092 1991 15 SI MM FATIMA 1991-03-23 15:00:00 TS -8.35249 86.2975 main 1584 1584 P____P______P_ SH171991 -8.15001 86.3000 40 0 -8.75745 86.2925 3 36 991 -8.15001 86.3000 TC 40 6 240
1991080S06092 1991 15 SI MM FATIMA 1991-03-23 18:00:00 TS -8.50000 86.0333 main 1618 1618 O____O______O_ jtwc_sh SH171991 -8.30000 86.0000 40 0 -8.90000 86.1000 3 36 991 9.90000 3.00000 -8.30000 86.0000 TC 40 6 241
1991080S06092 1991 15 SI MM FATIMA 1991-03-23 21:00:00 TS -8.63332 85.7783 main 1643 1643 P____P______P_ SH171991 -8.44997 85.7425 42 0 -9.00001 85.8500 3 40 987 -8.44997 85.7425 TC 42 6 242
1991080S06092 1991 15 SI MM FATIMA 1991-03-24 00:00:00 TS -8.76667 85.5333 main 1682 1682 O____O______O_ jtwc_sh SH171991 -8.60000 85.5000 45 0 -9.10000 85.6000 3 44 984 9.90000 3.50000 -8.60000 85.5000 TC 45 6 239
1991080S06092 1991 15 SI MM FATIMA 1991-03-24 03:00:00 TS -8.91664 85.3000 main 1707 1707 P____P______P_ SH171991 -8.74998 85.2500 47 0 -9.24996 85.4000 3 44 984 -8.74998 85.2500 TC 47 6 237
1991080S06092 1991 15 SI MM FATIMA 1991-03-24 06:00:00 TS -9.06667 85.0667 main 1737 1737 O____O______O_ jtwc_sh SH171991 -8.90000 85.0000 50 0 -9.40000 85.2000 3 44 984 9.90000 3.50000 -8.90000 85.0000 TC 50 6 239
1991080S06092 1991 15 SI MM FATIMA 1991-03-24 09:00:00 TS -9.20749 84.8167 main 1754 1752 P____P______P_ SH171991 -9.05748 84.7500 50 0 -9.50751 84.9500 3 44 984 -9.05748 84.7500 TC 50 6 242
1991080S06092 1991 15 SI MM FATIMA 1991-03-24 12:00:00 TS -9.33333 84.5667 main 1760 1757 O____O______O_ jtwc_sh SH171991 -9.20000 84.5000 50 0 -9.60000 84.7000 3 44 984 9.90000 3.50000 -9.20000 84.5000 TC 50 5 245
1991080S06092 1991 15 SI MM FATIMA 1991-03-24 15:00:00 TS -9.43081 84.3333 main 1762 1762 P____P______P_ SH171991 -9.29998 84.2500 50 0 -9.69246 84.5000 3 44 984 -9.29998 84.2500 TC 50 5 247
1991080S06092 1991 15 SI MM FATIMA 1991-03-24 18:00:00 TS -9.53333 84.1000 main 1768 1768 O____O______O_ jtwc_sh SH171991 -9.40000 84.0000 50 0 -9.80000 84.3000 3 44 984 9.90000 3.50000 -9.40000 84.0000 TC 50 5 242
1991080S06092 1991 15 SI MM FATIMA 1991-03-24 21:00:00 TS -9.67581 83.8575 main 1785 1781 P____P______P_ SH171991 -9.54247 83.7575 52 0 -9.94250 84.0575 3 44 984 -9.54247 83.7575 TC 52 6 239
1991080S06092 1991 15 SI MM FATIMA 1991-03-25 00:00:00 TS -9.83333 83.6000 main 1790 1790 O____O______O_ jtwc_sh SH171991 -9.70000 83.5000 55 0 -10.1000 83.8000 3 44 984 9.90000 3.50000 -9.70000 83.5000 TC 55 6 240
1991080S06092 1991 15 SI MM FATIMA 1991-03-25 03:00:00 TS -9.98333 83.3167 main 1806 1804 P____P______P_ SH171991 -9.85001 83.2000 55 0 -10.2500 83.5500 3 44 984 -9.85001 83.2000 TC 55 6 242
1991080S06092 1991 15 SI MM FATIMA 1991-03-25 06:00:00 TS -10.1333 83.0333 main 1812 1812 O____O______O_ jtwc_sh SH171991 -10.0000 82.9000 55 0 -10.4000 83.3000 3 44 984 9.90000 3.50000 -10.0000 82.9000 TC 55 6 241
1991080S06092 1991 15 SI MM FATIMA 1991-03-25 09:00:00 TS -10.2783 82.7783 main 1831 1830 P____P______P_ SH171991 -10.1425 82.6424 57 0 -10.5500 83.0500 3 45 982 -10.1425 82.6424 TC 57 6 239
1991080S06092 1991 15 SI MM FATIMA 1991-03-25 12:00:00 TS -10.4333 82.5333 main 1838 1838 O____O______O_ jtwc_sh SH171991 -10.3000 82.4000 60 0 -10.7000 82.8000 3 47 981 9.90000 3.50000 -10.3000 82.4000 TC 60 6 236
1991080S06092 1991 15 SI MM FATIMA 1991-03-25 15:00:00 TS -10.6167 82.2758 main 1858 1857 P____P______P_ SH171991 -10.5000 82.1425 62 0 -10.8500 82.5425 3 49 978 -10.5000 82.1425 TC 62 6 233
1991080S06092 1991 15 SI MM FATIMA 1991-03-25 18:00:00 TS -10.8000 82.0333 main 1877 1877 O____O______O_ jtwc_sh SH171991 -10.7000 81.9000 65 1 -11.0000 82.3000 3 52 976 9.90000 4.00000 -10.7000 81.9000 TC 65 5 233
1991080S06092 1991 15 SI MM FATIMA 1991-03-25 21:00:00 TS -10.9450 81.8333 main 1887 1887 P____P______P_ SH171991 -10.8500 81.6999 67 1 -11.1350 82.0999 3 52 976 -10.8500 81.6999 TC 67 5 233
1991080S06092 1991 15 SI MM FATIMA 1991-03-26 00:00:00 TS -11.1000 81.6333 main 1908 1908 O____O______O_ jtwc_sh SH171991 -11.0000 81.5000 70 1 -11.3000 81.9000 3 52 976 9.90000 4.00000 -11.0000 81.5000 TC 70 6 231
1991080S06092 1991 15 SI MM FATIMA 1991-03-26 03:00:00 TS -11.3067 81.3834 main 1929 1928 P____P______P_ SH171991 -11.1925 81.2500 75 1 -11.5350 81.6500 3 52 976 -11.1925 81.2500 TC 75 7 229
1991080S06092 1991 15 SI MM FATIMA 1991-03-26 06:00:00 TS -11.5333 81.1333 main 1950 1950 O____O______O_ jtwc_sh SH171991 -11.4000 81.0000 80 1 -11.8000 81.4000 3 52 976 9.90000 4.00000 -11.4000 81.0000 TC 80 6 226
1991080S06092 1991 15 SI MM FATIMA 1991-03-26 09:00:00 TS -11.7400 80.9208 main 1972 1972 P____P______P_ SH171991 -11.5850 80.7849 85 2 -12.0500 81.1924 3 52 976 -11.5850 80.7849 TC 85 6 222
1991080S06092 1991 15 SI MM FATIMA 1991-03-26 12:00:00 TS -11.9667 80.7333 main 2005 2005 O____O______O_ jtwc_sh SH171991 -11.8000 80.6000 90 2 -12.3000 81.0000 3 52 976 9.90000 4.00000 -11.8000 80.6000 TC 90 6 217
1991080S06092 1991 15 SI MM FATIMA 1991-03-26 15:00:00 TS -12.2350 80.5467 main 2028 2028 P____P______P_ SH171991 -12.0850 80.4275 90 2 -12.5350 80.7850 3 52 976 -12.0850 80.4275 TC 90 7 210
1991080S06092 1991 15 SI MM FATIMA 1991-03-26 18:00:00 TS -12.5333 80.4000 main 2061 2061 O____O______O_ jtwc_sh SH171991 -12.4000 80.3000 90 2 -12.8000 80.6000 3 52 976 9.90000 4.00000 -12.4000 80.3000 TC 90 7 201
1991080S06092 1991 15 SI MM FATIMA 1991-03-26 21:00:00 TS -12.8450 80.3058 main 2095 2095 P____P______P_ SH171991 -12.7000 80.2275 90 2 -13.1350 80.4625 3 52 976 -12.7000 80.2275 TC 90 7 192
1991080S06092 1991 15 SI MM FATIMA 1991-03-27 00:00:00 TS -13.1667 80.2667 main 2140 2140 O____O______O_ jtwc_sh SH171991 -13.0000 80.2000 90 2 -13.5000 80.4000 3 52 976 9.90000 4.00000 -13.0000 80.2000 TC 90 7 185
1991080S06092 1991 15 SI MM FATIMA 1991-03-27 03:00:00 TS -13.4933 80.2558 main 2173 2173 P____P______P_ SH171991 -13.3000 80.1775 90 2 -13.8800 80.4124 3 52 976 -13.3000 80.1775 TC 90 6 177
1991080S06092 1991 15 SI MM FATIMA 1991-03-27 06:00:00 TS -13.8000 80.3000 main 2207 2207 O____O______O_ jtwc_sh SH171991 -13.6000 80.2000 90 2 -14.2000 80.5000 3 52 976 9.90000 4.00000 -13.6000 80.2000 TC 90 6 166
1991080S06092 1991 15 SI MM FATIMA 1991-03-27 09:00:00 TS -14.0575 80.4017 main 2240 2240 P____P______P_ SH171991 -13.9000 80.2850 90 2 -14.3725 80.6350 3 52 976 -13.9000 80.2850 TC 90 6 155
1991080S06092 1991 15 SI MM FATIMA 1991-03-27 12:00:00 TS -14.3000 80.5333 main 2263 2263 O____O______O_ jtwc_sh SH171991 -14.2000 80.4000 90 2 -14.5000 80.8000 3 52 976 9.90000 4.00000 -14.2000 80.4000 TC 90 6 155
1991080S06092 1991 15 SI MM FATIMA 1991-03-27 15:00:00 TS -14.5717 80.6450 main 2296 2296 P____P______P_ SH171991 -14.5075 80.4925 90 2 -14.7000 80.9500 3 52 976 -14.5075 80.4925 TC 90 6 157
1991080S06092 1991 15 SI MM FATIMA 1991-03-27 18:00:00 TS -14.8333 80.7667 main 2319 2319 O____O______O_ jtwc_sh SH171991 -14.8000 80.6000 90 2 -14.9000 81.1000 3 52 976 9.90000 4.00000 -14.8000 80.6000 TC 90 5 152
1991080S06092 1991 15 SI MM FATIMA 1991-03-27 21:00:00 TS -15.0525 80.9042 main 2352 2352 P____P______P_ SH171991 -15.0575 80.7350 90 2 -15.0425 81.2426 3 52 976 -15.0575 80.7350 TC 90 5 146
1991080S06092 1991 15 SI MM FATIMA 1991-03-28 00:00:00 TS -15.2667 81.0667 main 2375 2375 O____O______O_ jtwc_sh SH171991 -15.3000 80.9000 90 2 -15.2000 81.4000 3 52 976 9.90000 4.00000 -15.3000 80.9000 TC 90 6 142
1991080S06092 1991 15 SI MM FATIMA 1991-03-28 03:00:00 TS -15.5067 81.2692 main 2398 2398 P____P______P_ SH171991 -15.5425 81.1000 90 2 -15.4350 81.6074 3 52 976 -15.5425 81.1000 TC 90 6 142
1991080S06092 1991 15 SI MM FATIMA 1991-03-28 06:00:00 TS -15.7667 81.4667 main 2432 2432 O____O______O_ jtwc_sh SH171991 -15.8000 81.3000 90 2 -15.7000 81.8000 3 52 976 9.90000 4.00000 -15.8000 81.3000 TC 90 6 148
1991080S06092 1991 15 SI MM FATIMA 1991-03-28 09:00:00 TS -16.0450 81.6125 main 2455 2455 P____P______P_ SH171991 -16.1000 81.4575 90 2 -15.9350 81.9226 3 52 976 -16.1000 81.4575 TC 90 6 156
1991080S06092 1991 15 SI MM FATIMA 1991-03-28 12:00:00 TS -16.3333 81.7333 main 2489 2489 O____O______O_ jtwc_sh SH171991 -16.4000 81.6000 90 2 -16.2000 82.0000 3 52 976 9.90000 4.00000 -16.4000 81.6000 TC 90 6 157
1991080S06092 1991 15 SI MM FATIMA 1991-03-28 15:00:00 TS -16.6142 81.8625 main 2500 2500 P____P______P_ SH171991 -16.6500 81.7575 87 2 -16.5425 82.0725 3 52 976 -16.6500 81.7575 TC 87 6 158
1991080S06092 1991 15 SI MM FATIMA 1991-03-28 18:00:00 TS -16.9000 81.9667 main 2514 2514 O____O______O_ jtwc_sh SH171991 -16.9000 81.9000 85 2 -16.9000 82.1000 3 52 976 9.90000 4.00000 -16.9000 81.9000 TC 85 6 162
1991080S06092 1991 15 SI MM FATIMA 1991-03-28 21:00:00 TS -17.2075 82.0641 main 2528 2528 P____P______P_ SH171991 -17.2075 82.0524 85 2 -17.2075 82.0874 3 52 976 -17.2075 82.0524 TC 85 6 171
1991080S06092 1991 15 SI MM FATIMA 1991-03-29 00:00:00 TS -17.5000 82.0667 main 2550 2548 O____O______O_ jtwc_sh SH171991 -17.5000 82.1000 85 2 -17.5000 82.0000 3 52 976 9.90000 4.00000 -17.5000 82.1000 TC 85 6 195
1991080S06092 1991 15 SI MM FATIMA 1991-03-29 03:00:00 TS -17.7509 81.9093 main 2546 2521 P____P______P_ SH171991 -17.7225 81.9526 85 2 -17.8075 81.8226 3 52 976 -17.7225 81.9526 TC 85 6 219
1991080S06092 1991 15 SI MM FATIMA 1991-03-29 06:00:00 TS -17.9667 81.6667 main 2521 2498 O____O______O_ jtwc_sh SH171991 -17.9000 81.7000 85 2 -18.1000 81.6000 3 52 976 9.90000 4.00000 -17.9000 81.7000 TC 85 6 228
1991080S06092 1991 15 SI MM FATIMA 1991-03-29 09:00:00 TS -18.1600 81.4383 main 2486 2463 P____P______P_ SH171991 -18.0575 81.4574 85 2 -18.3650 81.3999 3 55 973 -18.0575 81.4574 TC 85 6 230
1991080S06092 1991 15 SI MM FATIMA 1991-03-29 12:00:00 TS -18.3333 81.2000 main 2463 2439 O____O______O_ jtwc_sh SH171991 -18.2000 81.2000 85 2 -18.6000 81.2000 3 58 970 9.90000 4.50000 -18.2000 81.2000 TC 85 6 232
1991080S06092 1991 15 SI MM FATIMA 1991-03-29 15:00:00 TS -18.5125 80.9667 main 2439 2405 P____P______P_ SH171991 -18.3575 80.9500 85 2 -18.8225 81.0000 3 60 968 -18.3575 80.9500 TC 85 6 233
1991080S06092 1991 15 SI MM FATIMA 1991-03-29 18:00:00 TS -18.6667 80.7333 main 2405 2382 O____O______O_ jtwc_sh SH171991 -18.5000 80.7000 85 2 -19.0000 80.8000 3 62 966 9.90000 4.50000 -18.5000 80.7000 TC 85 5 241
1991080S06092 1991 15 SI MM FATIMA 1991-03-29 21:00:00 TS -18.7692 80.4874 main 2382 2360 P____P______P_ SH171991 -18.6000 80.4349 82 1 -19.1075 80.5924 3 62 966 -18.6000 80.4349 TC 82 5 246
1991080S06092 1991 15 SI MM FATIMA 1991-03-30 00:00:00 TS -18.8667 80.2667 main 2360 2337 O____O______O_ jtwc_sh SH171991 -18.7000 80.2000 80 1 -19.2000 80.4000 3 62 966 9.90000 4.50000 -18.7000 80.2000 TC 80 4 238
1991080S06092 1991 15 SI MM FATIMA 1991-03-30 03:00:00 TS -18.9991 80.0991 main 2337 2324 P____P______P_ SH171991 -18.8275 80.0275 80 1 -19.3425 80.2425 3 65 962 -18.8275 80.0275 TC 80 4 223
1991080S06092 1991 15 SI MM FATIMA 1991-03-30 06:00:00 TS -19.1667 79.9667 main 2324 2302 O____O______O_ jtwc_sh SH171991 -19.0000 79.9000 80 1 -19.5000 80.1000 4 68 959 9.90000 5.00000 -19.0000 79.9000 TC 80 4 214
1991080S06092 1991 15 SI MM FATIMA 1991-03-30 09:00:00 TS -19.3608 79.8400 main 2301 2288 P____P______P_ SH171991 -19.2275 79.7850 77 1 -19.6275 79.9499 4 70 956 -19.2275 79.7850 TC 77 5 207
1991080S06092 1991 15 SI MM FATIMA 1991-03-30 12:00:00 TS -19.6000 79.7333 72 954 reunion main 2288 2275 O____O______O_ jtwc_sh SH171991 -19.5000 79.7000 75 1 -19.8000 79.8000 4 72 954 9.90000 5.00000 -19.5000 79.7000 TC 75 5 201
1991080S06092 1991 15 SI MM FATIMA 1991-03-30 15:00:00 TS -19.8625 79.6375 main 2275 2272 P____P______P_ SH171991 -19.7625 79.6424 75 1 -20.0625 79.6276 4 72 954 -19.7625 79.6424 TC 75 6 195
1991080S06092 1991 15 SI MM FATIMA 1991-03-30 18:00:00 TS -20.2000 79.5667 72 954 reunion main 2272 2259 O____O______O_ jtwc_sh SH171991 -20.1000 79.6000 75 1 -20.4000 79.5000 4 72 954 9.90000 5.00000 -20.1000 79.6000 TC 75 8 190
1991080S06092 1991 15 SI MM FATIMA 1991-03-30 21:00:00 TS -20.6242 79.4986 main 2259 2256 P____P______P_ SH171991 -20.5550 79.5203 72 1 -20.7625 79.4551 4 72 954 -20.5550 79.5203 TC 72 9 183
1991080S06092 1991 15 SI MM FATIMA 1991-03-31 00:00:00 TS -21.1333 79.5000 72 954 reunion main 2256 2255 O____O______O_ jtwc_sh SH171991 -21.1000 79.5000 70 1 -21.2000 79.5000 4 72 954 9.90000 5.00000 -21.1000 79.5000 TC 70 11 175
1991080S06092 1991 15 SI MM FATIMA 1991-03-31 03:00:00 TS -21.6891 79.6001 main 2266 2266 P____P______P_ SH171991 -21.6775 79.5976 70 1 -21.7125 79.6052 4 67 960 -21.6775 79.5976 TC 70 12 166
1991080S06092 1991 15 SI MM FATIMA 1991-03-31 06:00:00 TS -22.3000 79.8000 62 966 reunion main 2287 2287 O____O______O_ jtwc_sh SH171991 -22.3000 79.8000 70 1 -22.3000 79.8000 3 62 966 9.90000 4.50000 -22.3000 79.8000 TC 70 13 161
1991080S06092 1991 15 SI MM FATIMA 1991-03-31 09:00:00 TS -22.9350 80.0627 main 2320 2320 P____P______P_ SH171991 -22.9350 80.0627 67 1 -22.9350 80.0627 3 59 969 -22.9350 80.0627 TC 67 14 157
1991080S06092 1991 15 SI MM FATIMA 1991-03-31 12:00:00 TS -23.6000 80.4000 main 2356 2356 O____O______O_ jtwc_sh SH171991 -23.6000 80.4000 65 1 -23.6000 80.4000 3 56 972 9.90000 4.00000 -23.6000 80.4000 TC 65 15 154
1991080S06092 1991 15 SI MM FATIMA 1991-03-31 15:00:00 TS -24.2607 80.7633 main 2404 2404 P____P______P_ SH171991 -24.2698 80.7633 65 1 -24.2423 80.7631 3 54 974 -24.2698 80.7633 TC 65 16 152
1991080S06092 1991 15 SI MM FATIMA 1991-03-31 18:00:00 TS -24.9667 81.2000 main 2453 2453 O____O______O_ jtwc_sh SH171991 -25.0000 81.2000 65 1 -24.9000 81.2000 3 52 976 9.90000 4.00000 -25.0000 81.2000 TC 65 17 150
1991080S06092 1991 15 SI MM FATIMA 1991-03-31 21:00:00 TS -25.7188 81.6964 main 2514 2514 P____P______P_ SH171991 -25.7972 81.6989 62 0 -25.5621 81.6915 3 48 980 -25.7972 81.6989 TC 62 19 148
1991080S06092 1991 15 SI MM FATIMA 1991-04-01 00:00:00 TS -26.5667 82.3000 main 2590 2590 O____O______O_ jtwc_sh SH171991 -26.7000 82.3000 60 0 -26.3000 82.3000 3 44 984 9.90000 3.50000 -26.7000 82.3000 TC 60 21 148
1991080S06092 1991 15 SI MM FATIMA 1991-04-01 03:00:00 TS -27.5201 82.9548 main 2631 2556 P____P______P_ SH171991 -27.7184 82.9403 57 0 -27.1235 82.9838 3 41 986 -27.7184 82.9403 TC 57 24 146
1991080S06092 1991 15 SI MM FATIMA 1991-04-01 06:00:00 TS -28.5667 83.8333 main 2546 2491 O____O______O_ jtwc_sh SH171991 -28.8000 83.8000 55 0 -28.1000 83.9000 3 39 988 9.90000 3.50000 -28.8000 83.8000 TC 55 28 140
1991080S06092 1991 15 SI MM FATIMA 1991-04-01 09:00:00 TS -29.6586 85.0266 main 2481 2438 P____P______P_ SH171991 -29.8185 84.9472 52 0 -29.3390 85.1852 3 37 989 -29.8185 84.9472 TC 52 32 134
1991080S06092 1991 15 SI MM FATIMA 1991-04-01 12:00:00 TS -30.7909 86.4545 main 2437 2393 O____O______O_ jtwc_sh SH171991 -30.9000 86.4000 50 0 -30.5000 86.6000 3 36 991 9.90000 3.00000 -30.9000 86.4000 TC 50 35 133
1991080S06092 1991 15 SI MM FATIMA 1991-04-01 15:00:00 TS -31.9950 87.9831 main 2394 2335 P____P______P_ SH171991 -32.1750 88.0139 47 0 -31.2751 87.8596 3 -32.1750 88.0139 TC 47 37 130
1991080S06092 1991 15 SI MM FATIMA 1991-04-01 18:00:00 MX -33.1714 89.8571 main 2314 2079 O____O______O_ jtwc_sh SH171991 -33.4000 90.0000 45 0 -31.8000 89.0000 5 9.90000 3.00000 -33.4000 90.0000 TC 45 44 122
1991080S06092 1991 15 SI WA FATIMA 1991-04-01 21:00:00 TS -34.3540 92.4173 main 2068 1826 P___________P_ SH171991 -34.3540 92.4173 42 0 5 -34.3540 92.4173 TC 42 47 114
1991080S06092 1991 15 SI WA FATIMA 1991-04-02 00:00:00 TS -35.1000 95.1000 main 1817 O___________O_ jtwc_sh SH171991 -35.1000 95.1000 40 0 -35.1000 95.1000 TC 40 46 109

IBTrACS Databaseについて

本データベースは、米国NOAAが公開する1842年以降の世界の熱帯低気圧のベストトラックデータアーカイブInternational Best Track Archive for Climate Stewardship (IBTrACS)を、ウェブで閲覧しやすい形式に変換したものです。

最終更新日:2021-12-01